Time;durP1;ratioP1;P1;durP2;ratioP2;P2;SDS_P1;SDS_P2;PMS_P1;PMS_P2;Temp;Humidity;BMP_temperature;BMP_pressure;BME280_temperature;BME280_humidity;BME280_pressure;Samples;Min_cycle;Max_cycle;Signal;HPM_P1;HPM_P2
2022/02/20 00:02:01;;;;;;;3.98;1.72;;;;;;;3.92;57.75;98767.80;1737569;82;21535;-69
2022/02/20 00:04:27;;;;;;;5.33;1.95;;;;;;;3.90;57.79;98764.02;1735406;82;20993;-72
2022/02/20 00:06:54;;;;;;;6.08;2.17;;;;;;;3.89;57.86;98773.35;1729955;81;21011;-71
2022/02/20 00:09:20;;;;;;;5.03;2.17;;;;;;;3.87;57.94;98773.98;1717958;82;21172;-70
2022/02/20 00:11:47;;;;;;;3.20;2.20;;;;;;;3.84;58.03;98775.59;1726698;81;21148;-69
2022/02/20 00:14:14;;;;;;;3.85;2.37;;;;;;;3.82;58.12;98773.12;1736395;81;20994;-71
2022/02/20 00:16:41;;;;;;;6.08;2.50;;;;;;;3.80;58.16;98767.66;1736217;82;21024;-71
2022/02/20 00:19:07;;;;;;;4.00;1.92;;;;;;;3.79;58.14;98776.03;1733553;82;20973;-69
2022/02/20 00:21:34;;;;;;;3.95;1.98;;;;;;;3.79;58.17;98779.14;1723642;82;20979;-71
2022/02/20 00:24:00;;;;;;;5.53;2.08;;;;;;;3.79;58.13;98775.20;1731478;80;21844;-71
2022/02/20 00:26:26;;;;;;;4.85;2.45;;;;;;;3.79;58.05;98783.09;1735859;82;21007;-69
2022/02/20 00:28:53;;;;;;;5.78;2.00;;;;;;;3.77;58.07;98780.62;1736805;82;20978;-70
2022/02/20 00:31:20;;;;;;;5.83;2.30;;;;;;;3.81;57.97;98783.80;1735569;82;21036;-70
2022/02/20 00:33:47;;;;;;;5.55;2.10;;;;;;;3.81;57.93;98796.95;1735836;81;20981;-69
2022/02/20 00:36:13;;;;;;;3.33;2.00;;;;;;;3.81;57.94;98789.06;1734534;82;21151;-69
2022/02/20 00:38:40;;;;;;;4.00;1.82;;;;;;;3.80;57.92;98788.23;1735880;82;21551;-70
2022/02/20 00:41:06;;;;;;;3.25;2.02;;;;;;;3.78;58.01;98790.15;1734434;81;20917;-69
2022/02/20 00:43:33;;;;;;;3.30;1.92;;;;;;;3.77;58.13;98788.99;1711268;82;20982;-69
2022/02/20 00:46:00;;;;;;;2.92;1.80;;;;;;;3.75;58.21;98797.05;1733879;81;21419;-70
2022/02/20 00:48:27;;;;;;;3.55;2.30;;;;;;;3.72;58.36;98795.53;1746010;81;21854;-70
2022/02/20 00:50:54;;;;;;;4.65;2.10;;;;;;;3.70;58.49;98800.59;1729629;82;21526;-69
2022/02/20 00:53:22;;;;;;;3.05;1.75;;;;;;;3.69;58.54;98810.28;1730541;81;20943;-70
2022/02/20 00:55:48;;;;;;;4.20;2.10;;;;;;;3.67;58.59;98804.82;1735654;81;21046;-71
2022/02/20 00:58:15;;;;;;;2.98;2.33;;;;;;;3.65;58.68;98797.05;1729951;82;21039;-70
2022/02/20 01:00:41;;;;;;;4.12;1.90;;;;;;;3.62;58.80;98792.07;1745076;81;21892;-71
2022/02/20 01:03:09;;;;;;;4.45;2.20;;;;;;;3.61;58.93;98801.44;1743152;82;20912;-70
2022/02/20 01:05:36;;;;;;;3.17;1.92;;;;;;;3.60;59.06;98802.39;1748358;81;20891;-69
2022/02/20 01:08:03;;;;;;;2.60;1.52;;;;;;;3.57;59.12;98796.94;1740255;81;21477;-69
2022/02/20 01:10:31;;;;;;;4.20;1.87;;;;;;;3.57;59.24;98806.65;1741499;81;20941;-69
2022/02/20 01:13:00;;;;;;;4.40;2.17;;;;;;;3.55;59.32;98806.77;1729778;82;21826;-69
2022/02/20 01:15:26;;;;;;;3.85;2.10;;;;;;;3.54;59.39;98813.50;1738878;81;20856;-70
2022/02/20 01:17:53;;;;;;;3.37;2.05;;;;;;;3.50;59.40;98806.38;1733748;81;20953;-69
2022/02/20 01:20:19;;;;;;;3.40;1.98;;;;;;;3.49;59.49;98815.73;1729889;82;20969;-70
2022/02/20 01:22:46;;;;;;;3.27;1.98;;;;;;;3.47;59.55;98807.13;1738490;81;21494;-70
2022/02/20 01:25:13;;;;;;;3.10;1.98;;;;;;;3.46;59.58;98806.33;1746763;81;21164;-69
2022/02/20 01:27:39;;;;;;;6.37;2.85;;;;;;;3.46;59.60;98811.59;1729619;82;20964;-70
2022/02/20 01:30:07;;;;;;;3.20;1.87;;;;;;;3.45;59.66;98816.49;1741699;81;20979;-70
2022/02/20 01:32:34;;;;;;;6.22;2.87;;;;;;;3.45;59.70;98818.28;1746994;81;21012;-70
2022/02/20 01:35:00;;;;;;;4.78;2.55;;;;;;;3.44;59.73;98813.50;1748168;81;21865;-71
2022/02/20 01:37:27;;;;;;;4.87;2.65;;;;;;;3.44;59.77;98820.08;1734271;81;21148;-69
2022/02/20 01:39:54;;;;;;;9.88;2.95;;;;;;;3.44;59.83;98816.64;1746739;81;20979;-69
2022/02/20 01:42:22;;;;;;;5.17;2.27;;;;;;;3.42;59.84;98827.28;1754628;81;21018;-69
2022/02/20 01:44:49;;;;;;;10.53;2.85;;;;;;;3.41;59.91;98833.53;1731113;81;21044;-69
2022/02/20 01:47:15;;;;;;;3.42;2.20;;;;;;;3.38;60.04;98823.30;1730962;82;21063;-69
2022/02/20 01:49:43;;;;;;;3.17;2.42;;;;;;;3.37;60.15;98829.98;1731392;82;22246;-71
2022/02/20 01:52:10;;;;;;;4.12;1.75;;;;;;;3.34;60.31;98828.47;1732006;82;21011;-71
2022/02/20 01:54:38;;;;;;;3.65;2.30;;;;;;;3.35;60.37;98830.14;1728659;82;20937;-70
2022/02/20 01:57:06;;;;;;;3.12;2.08;;;;;;;3.33;60.38;98830.77;1732839;82;20989;-70
2022/02/20 01:59:35;;;;;;;4.72;1.77;;;;;;;3.33;60.44;98833.88;1708452;82;20949;-70
2022/02/20 02:02:21;;;;;;;6.15;2.60;;;;;;;3.30;60.49;98824.95;1617402;87;21861;-69
2022/02/20 02:04:52;;;;;;;4.35;2.10;;;;;;;3.27;60.61;98833.95;1635565;86;21145;-70
2022/02/20 02:07:18;;;;;;;3.00;2.10;;;;;;;3.24;60.74;98834.23;1652615;83;21557;-69
2022/02/20 02:09:55;;;;;;;6.40;2.35;;;;;;;3.21;60.87;98831.07;1696607;83;20998;-71
2022/02/20 02:12:36;;;;;;;4.62;2.50;;;;;;;3.18;60.94;98826.09;1731094;82;21449;-70
2022/02/20 02:15:09;;;;;;;4.47;2.37;;;;;;;3.15;61.08;98826.36;1721101;82;21158;-71
2022/02/20 02:17:54;;;;;;;4.42;2.55;;;;;;;3.11;61.22;98825.80;1733994;82;21044;-68
2022/02/20 02:20:40;;;;;;;3.75;2.67;;;;;;;3.09;61.32;98821.17;1706508;82;21446;-69
2022/02/20 02:23:27;;;;;;;4.83;2.40;;;;;;;3.06;61.43;98824.07;1736348;82;21060;-69
2022/02/20 02:25:57;;;;;;;5.62;2.85;;;;;;;3.04;61.50;98823.39;1734316;82;21447;-69
2022/02/20 02:28:26;;;;;;;4.17;2.90;;;;;;;3.03;61.60;98834.37;1730467;82;21164;-68
2022/02/20 02:30:55;;;;;;;5.53;2.65;;;;;;;3.02;61.67;98826.64;1737297;82;20941;-70
2022/02/20 02:33:30;;;;;;;4.50;2.60;;;;;;;3.02;61.75;98827.96;1737888;82;20986;-69
2022/02/20 02:35:57;;;;;;;5.28;2.70;;;;;;;3.02;61.79;98830.59;1721649;82;20948;-69
2022/02/20 02:38:26;;;;;;;5.42;2.33;;;;;;;3.00;61.96;98836.44;1710970;82;21461;-67
2022/02/20 02:41:06;;;;;;;4.08;2.10;;;;;;;2.99;62.03;98826.92;1698016;82;21171;-69
2022/02/20 02:43:34;;;;;;;3.83;2.30;;;;;;;2.97;62.07;98828.86;1715933;82;20981;-68
2022/02/20 02:46:01;;;;;;;3.60;2.12;;;;;;;2.96;62.25;98824.08;1744328;81;21023;-69
2022/02/20 02:48:28;;;;;;;3.67;2.67;;;;;;;2.94;62.30;98821.25;1758474;81;21007;-69
2022/02/20 02:50:54;;;;;;;6.10;2.80;;;;;;;2.93;62.44;98824.35;1734836;82;21035;-69
2022/02/20 02:53:21;;;;;;;5.12;2.30;;;;;;;2.91;62.51;98821.52;1737044;81;21107;-69
2022/02/20 02:55:50;;;;;;;5.05;2.72;;;;;;;2.90;62.61;98822.47;1747398;81;20935;-68
2022/02/20 02:58:22;;;;;;;5.22;2.72;;;;;;;2.89;62.65;98824.30;1737289;81;21129;-68
2022/02/20 03:00:50;;;;;;;4.70;2.47;;;;;;;2.88;62.71;98823.10;1743425;81;20948;-69
2022/02/20 03:03:17;;;;;;;3.12;2.25;;;;;;;2.87;62.78;98818.80;1748804;81;20921;-70
2022/02/20 03:05:43;;;;;;;3.92;2.22;;;;;;;2.90;62.79;98826.42;1740881;81;21145;-69
2022/02/20 03:08:10;;;;;;;7.33;2.42;;;;;;;2.90;62.75;98823.79;1735060;81;21396;-70
2022/02/20 03:10:36;;;;;;;5.58;2.45;;;;;;;2.90;62.71;98830.36;1762978;80;20948;-69
2022/02/20 03:13:03;;;;;;;4.50;2.17;;;;;;;2.91;62.72;98830.72;1746854;81;21021;-69
2022/02/20 03:15:32;;;;;;;4.20;2.42;;;;;;;2.92;62.81;98833.70;1736130;81;20949;-68
2022/02/20 03:17:58;;;;;;;4.97;2.35;;;;;;;2.91;62.89;98826.77;1751838;81;21156;-70
2022/02/20 03:20:25;;;;;;;5.28;2.60;;;;;;;2.91;62.98;98828.92;1735547;81;20928;-70
2022/02/20 03:22:52;;;;;;;5.10;2.70;;;;;;;2.91;63.07;98831.55;1734248;82;21036;-70
2022/02/20 03:25:19;;;;;;;5.28;2.75;;;;;;;2.90;63.11;98825.94;1740783;81;20992;-69
2022/02/20 03:27:46;;;;;;;3.75;2.65;;;;;;;2.89;63.21;98830.03;1751459;81;20904;-69
2022/02/20 03:30:14;;;;;;;5.85;2.40;;;;;;;2.87;63.25;98830.15;1760178;81;21483;-70
2022/02/20 03:32:44;;;;;;;3.47;2.20;;;;;;;2.86;63.24;98835.08;1733967;82;21961;-68
2022/02/20 03:35:11;;;;;;;4.95;2.22;;;;;;;2.85;63.26;98829.94;1739259;81;21007;-69
2022/02/20 03:37:37;;;;;;;5.42;2.83;;;;;;;2.83;63.29;98833.20;1698273;84;20906;-69
2022/02/20 03:40:05;;;;;;;5.87;2.90;;;;;;;2.81;63.28;98829.41;1704259;83;20953;-68
2022/02/20 03:42:34;;;;;;;4.50;2.60;;;;;;;2.80;63.28;98827.73;1678428;85;21844;-70
2022/02/20 03:45:05;;;;;;;3.85;2.60;;;;;;;2.81;63.28;98829.88;1741798;80;21564;-68
2022/02/20 03:47:34;;;;;;;8.35;3.72;;;;;;;2.80;63.31;98830.84;1752605;81;21473;-68
2022/02/20 03:50:01;;;;;;;6.85;4.30;;;;;;;2.77;63.41;98828.00;1747638;81;21047;-69
2022/02/20 03:52:39;;;;;;;5.72;3.20;;;;;;;2.76;63.43;98830.78;1743036;81;20946;-68
2022/02/20 03:55:08;;;;;;;6.42;3.72;;;;;;;2.75;63.46;98829.95;1747515;81;21809;-69
2022/02/20 03:57:37;;;;;;;8.35;4.40;;;;;;;2.74;63.48;98821.70;1755860;81;20888;-69
2022/02/20 04:00:21;;;;;;;8.63;4.47;;;;;;;2.75;63.46;98824.69;1737447;81;20992;-69
2022/02/20 04:02:56;;;;;;;7.42;4.05;;;;;;;2.74;63.48;98819.59;1732438;82;20999;-70
2022/02/20 04:05:22;;;;;;;6.92;4.75;;;;;;;2.72;63.53;98822.81;1737118;81;21544;-70
2022/02/20 04:07:50;;;;;;;7.15;4.08;;;;;;;2.70;63.64;98822.13;1734382;82;20838;-68
2022/02/20 04:10:18;;;;;;;7.00;4.25;;;;;;;2.68;63.66;98820.95;1746392;81;21470;-70
2022/02/20 04:12:45;;;;;;;7.65;4.15;;;;;;;2.68;63.70;98821.44;1746282;81;21103;-70
2022/02/20 04:15:15;;;;;;;9.98;4.87;;;;;;;2.67;63.70;98822.39;1745859;81;21036;-70
2022/02/20 04:17:44;;;;;;;9.40;4.92;;;;;;;2.64;63.73;98825.28;1753062;81;21478;-69
2022/02/20 04:20:18;;;;;;;7.28;4.55;;;;;;;2.63;63.71;98823.64;1738085;81;21153;-70
2022/02/20 04:22:45;;;;;;;8.75;4.55;;;;;;;2.63;63.66;98821.85;1732488;81;20940;-68
2022/02/20 04:25:13;;;;;;;7.90;4.28;;;;;;;2.64;63.58;98822.66;1738149;81;21418;-71
2022/02/20 04:27:40;;;;;;;8.60;4.60;;;;;;;2.64;63.52;98812.16;1751669;81;20933;-69
2022/02/20 04:30:08;;;;;;;10.85;5.15;;;;;;;2.65;63.40;98816.45;1749082;81;21439;-69
2022/02/20 04:32:36;;;;;;;9.38;5.62;;;;;;;2.64;63.32;98807.73;1751896;81;21153;-70
2022/02/20 04:35:05;;;;;;;10.35;6.95;;;;;;;2.63;63.25;98807.41;1760268;81;20959;-69
2022/02/20 04:37:33;;;;;;;10.40;6.45;;;;;;;2.64;63.15;98805.59;1734197;82;21013;-70
2022/02/20 04:40:01;;;;;;;11.20;6.95;;;;;;;2.63;63.06;98811.83;1734092;82;21021;-70
2022/02/20 04:42:29;;;;;;;10.55;6.20;;;;;;;2.63;63.06;98814.45;1761975;81;20960;-68
2022/02/20 04:44:58;;;;;;;11.78;6.40;;;;;;;2.60;63.02;98811.62;1735569;81;21175;-68
2022/02/20 04:47:27;;;;;;;8.55;5.83;;;;;;;2.60;62.95;98806.84;1737324;82;21545;-68
2022/02/20 04:49:54;;;;;;;9.93;5.53;;;;;;;2.60;62.89;98808.16;1738309;82;21452;-69
2022/02/20 04:52:25;;;;;;;8.35;5.30;;;;;;;2.58;62.88;98805.68;1735848;82;20983;-70
2022/02/20 04:54:56;;;;;;;8.18;5.15;;;;;;;2.58;62.84;98807.47;1725086;82;20877;-68
2022/02/20 04:57:22;;;;;;;8.43;5.08;;;;;;;2.57;62.81;98811.05;1735284;82;21154;-69
2022/02/20 04:59:55;;;;;;;9.48;4.83;;;;;;;2.55;62.75;98804.63;1736053;82;20916;-69
2022/02/20 05:02:17;;;;;;;7.60;4.78;;;;;;;2.54;62.72;98807.38;1735610;81;20981;-70
2022/02/20 05:04:46;;;;;;;6.45;4.37;;;;;;;2.53;62.70;98809.67;1736726;81;21600;-71
2022/02/20 05:07:12;;;;;;;6.75;4.22;;;;;;;2.51;62.68;98817.67;1735805;82;20941;-70
2022/02/20 05:09:41;;;;;;;7.08;4.42;;;;;;;2.51;62.64;98820.30;1736719;81;21938;-69
2022/02/20 05:12:08;;;;;;;8.48;4.70;;;;;;;2.52;62.66;98823.75;1734357;81;20900;-69
2022/02/20 05:14:35;;;;;;;6.85;4.25;;;;;;;2.53;62.60;98818.86;1734740;82;21415;-69
2022/02/20 05:17:07;;;;;;;7.00;4.20;;;;;;;2.54;62.51;98823.97;1733320;81;20948;-69
2022/02/20 05:19:35;;;;;;;8.63;3.95;;;;;;;2.55;62.45;98816.45;1731107;82;20877;-69
2022/02/20 05:22:03;;;;;;;6.55;4.47;;;;;;;2.57;62.34;98822.39;1738354;81;21184;-70
2022/02/20 05:24:31;;;;;;;8.78;4.70;;;;;;;2.57;62.30;98826.33;1737791;81;21526;-69
2022/02/20 05:26:58;;;;;;;8.83;4.08;;;;;;;2.59;62.21;98824.39;1730113;82;20889;-69
2022/02/20 05:29:27;;;;;;;7.35;3.92;;;;;;;2.62;62.21;98829.84;1736761;81;22320;-71
2022/02/20 05:31:55;;;;;;;7.03;3.80;;;;;;;2.70;62.15;98831.31;1739208;82;20936;-72
2022/02/20 05:34:23;;;;;;;7.15;4.00;;;;;;;2.80;62.01;98834.78;1738947;81;21147;-72
2022/02/20 05:36:50;;;;;;;7.17;4.25;;;;;;;2.95;61.85;98833.40;1735295;82;21451;-73
2022/02/20 05:39:18;;;;;;;5.37;3.75;;;;;;;3.12;61.49;98840.61;1735087;82;21526;-73
2022/02/20 05:41:45;;;;;;;6.33;3.70;;;;;;;3.33;61.08;98832.09;1716411;82;21043;-72
2022/02/20 05:44:12;;;;;;;7.28;3.80;;;;;;;3.55;60.49;98840.13;1715615;81;21010;-71
2022/02/20 05:46:40;;;;;;;6.55;4.03;;;;;;;3.76;59.81;98832.88;1736199;81;21353;-69
2022/02/20 05:49:08;;;;;;;7.05;4.17;;;;;;;4.01;59.24;98836.21;1730760;82;20888;-70
2022/02/20 05:51:42;;;;;;;10.05;4.05;;;;;;;4.31;58.68;98828.51;1732078;82;21015;-70
2022/02/20 05:54:10;;;;;;;8.35;4.72;;;;;;;4.64;57.84;98821.81;1715666;82;21945;-70
2022/02/20 05:56:37;;;;;;;7.78;4.53;;;;;;;4.96;56.93;98827.39;1721416;82;20928;-72
2022/02/20 05:59:05;;;;;;;9.18;4.72;;;;;;;5.26;56.07;98817.79;1716676;82;21556;-71
2022/02/20 06:01:32;;;;;;;8.78;4.70;;;;;;;5.60;55.14;98825.80;1730234;82;20941;-69
2022/02/20 06:04:01;;;;;;;6.78;4.00;;;;;;;5.95;54.00;98821.73;1737685;82;21612;-73
2022/02/20 06:06:46;;;;;;;8.20;4.30;;;;;;;6.33;53.04;98823.58;1737767;82;20913;-70
2022/02/20 06:09:25;;;;;;;7.65;4.08;;;;;;;6.70;51.96;98812.14;1737160;82;21015;-69
2022/02/20 06:11:54;;;;;;;6.15;3.92;;;;;;;6.99;50.99;98816.47;1729219;82;21762;-71
2022/02/20 06:14:39;;;;;;;6.28;4.05;;;;;;;7.21;50.16;98813.19;1737620;82;20933;-70
2022/02/20 06:17:24;;;;;;;7.10;4.20;;;;;;;7.48;49.45;98819.45;1717515;82;21037;-70
2022/02/20 06:20:06;;;;;;;7.40;4.53;;;;;;;7.76;48.77;98805.87;1681639;82;21001;-73
2022/02/20 06:22:37;;;;;;;7.20;4.50;;;;;;;8.05;48.04;98801.66;1669545;81;20990;-67
2022/02/20 06:25:09;;;;;;;6.95;4.25;;;;;;;8.44;47.46;98795.08;1734039;82;21190;-74
2022/02/20 06:27:46;;;;;;;8.73;4.25;;;;;;;8.89;46.46;98794.30;1738120;82;20980;-70
2022/02/20 06:30:14;;;;;;;8.43;4.90;;;;;;;9.31;45.60;98788.02;1735331;81;20947;-72
2022/02/20 06:32:41;;;;;;;7.10;4.37;;;;;;;9.76;44.66;98779.63;1672978;85;21047;-73
2022/02/20 06:35:08;;;;;;;8.00;4.78;;;;;;;10.25;43.86;98786.58;1699696;82;21025;-69
2022/02/20 06:37:36;;;;;;;8.05;4.55;;;;;;;10.78;42.82;98780.89;1702357;82;20878;-68
2022/02/20 06:40:07;;;;;;;9.15;5.22;;;;;;;11.28;41.74;98781.30;1737354;81;21569;-69
2022/02/20 06:42:35;;;;;;;8.28;5.00;;;;;;;11.84;40.83;98776.00;1669589;85;20961;-69
2022/02/20 06:45:04;;;;;;;7.50;5.10;;;;;;;12.27;39.40;98778.83;1691986;82;21038;-68
2022/02/20 06:47:33;;;;;;;6.97;5.20;;;;;;;12.45;38.69;98779.12;1747975;81;21032;-69
2022/02/20 06:50:06;;;;;;;7.70;5.17;;;;;;;12.63;38.09;98782.56;1745036;81;21802;-72
2022/02/20 06:52:40;;;;;;;8.30;5.72;;;;;;;12.64;37.46;98782.89;1720341;82;20845;-70
2022/02/20 06:55:12;;;;;;;8.25;4.92;;;;;;;12.79;37.51;98786.22;1663804;81;21585;-69
2022/02/20 06:57:49;;;;;;;7.60;4.75;;;;;;;13.12;37.06;98788.48;1712106;81;20953;-72
2022/02/20 07:00:16;;;;;;;6.95;4.72;;;;;;;13.36;36.25;98773.72;1730031;82;20992;-72
2022/02/20 07:02:42;;;;;;;7.15;4.42;;;;;;;13.24;35.93;98774.85;1729686;82;21513;-71
2022/02/20 07:05:09;;;;;;;7.28;4.60;;;;;;;12.96;35.59;98780.30;1729992;82;20894;-71
2022/02/20 07:07:37;;;;;;;8.45;5.40;;;;;;;12.66;35.69;98791.52;1729821;82;20961;-71
2022/02/20 07:10:07;;;;;;;7.80;4.85;;;;;;;12.43;35.83;98801.68;1729825;82;21039;-66
2022/02/20 07:12:36;;;;;;;7.25;4.75;;;;;;;12.06;35.93;98793.58;1729737;82;20989;-65
2022/02/20 07:15:04;;;;;;;7.35;4.53;;;;;;;11.55;36.51;98808.98;1730506;80;21142;-65
2022/02/20 07:17:32;;;;;;;5.90;4.22;;;;;;;11.36;37.10;98805.13;1746358;80;21047;-67
2022/02/20 07:20:03;;;;;;;8.05;4.78;;;;;;;11.23;37.17;98810.83;1752286;81;20927;-66
2022/02/20 07:22:28;;;;;;;6.83;4.55;;;;;;;10.98;37.27;98810.36;1671334;84;20948;-66
2022/02/20 07:24:55;;;;;;;6.62;4.37;;;;;;;10.67;37.76;98813.80;1686380;84;20920;-66
2022/02/20 07:27:22;;;;;;;9.68;4.35;;;;;;;10.44;38.22;98812.11;1688441;83;21549;-72
2022/02/20 07:29:48;;;;;;;6.78;4.50;;;;;;;10.25;38.61;98805.19;1684023;85;20921;-72
2022/02/20 07:32:16;;;;;;;7.37;4.37;;;;;;;10.00;38.84;98810.43;1684212;84;20959;-67
2022/02/20 07:34:42;;;;;;;8.10;4.97;;;;;;;9.77;39.28;98814.00;1701850;83;20947;-68
2022/02/20 07:37:09;;;;;;;6.20;4.42;;;;;;;9.65;40.08;98816.75;1710789;83;20864;-68
2022/02/20 07:39:37;;;;;;;7.65;4.60;;;;;;;9.65;40.59;98820.73;1683930;85;20866;-67
2022/02/20 07:42:04;;;;;;;7.12;4.55;;;;;;;9.76;40.34;98816.32;1684063;84;21003;-67
2022/02/20 07:44:34;;;;;;;5.83;4.20;;;;;;;9.99;40.01;98814.91;1690622;83;20998;-67
2022/02/20 07:47:01;;;;;;;8.18;4.37;;;;;;;10.16;39.60;98815.61;1709024;83;20948;-66
2022/02/20 07:49:29;;;;;;;6.22;4.10;;;;;;;10.15;39.25;98817.93;1703003;84;20949;-70
2022/02/20 07:51:55;;;;;;;7.60;4.60;;;;;;;10.02;39.14;98815.05;1754113;80;21210;-74
2022/02/20 07:54:22;;;;;;;8.13;5.40;;;;;;;9.78;39.33;98807.66;1757228;80;21600;-65
2022/02/20 07:56:48;;;;;;;8.78;7.00;;;;;;;9.60;39.61;98803.69;1758543;80;20903;-65
2022/02/20 07:59:15;;;;;;;8.20;4.90;;;;;;;9.45;39.59;98809.47;1746640;80;21401;-65
2022/02/20 08:01:41;;;;;;;6.08;4.05;;;;;;;9.23;40.71;98805.83;1748250;80;21524;-65
2022/02/20 08:04:08;;;;;;;6.20;4.22;;;;;;;9.10;40.51;98806.42;1747438;80;21103;-68
2022/02/20 08:06:34;;;;;;;6.05;3.98;;;;;;;8.88;40.76;98801.95;1757194;80;21472;-65
2022/02/20 08:09:03;;;;;;;6.60;4.55;;;;;;;8.79;41.03;98804.80;1763078;80;21248;-66
2022/02/20 08:11:32;;;;;;;6.00;4.05;;;;;;;8.68;41.08;98802.08;1756968;80;20917;-63
2022/02/20 08:13:59;;;;;;;7.65;4.28;;;;;;;8.60;41.17;98800.27;1744556;80;20924;-64
2022/02/20 08:16:26;;;;;;;6.25;3.72;;;;;;;8.47;41.30;98800.53;1764101;80;21096;-64
2022/02/20 08:18:52;;;;;;;6.10;3.65;;;;;;;8.32;41.46;98792.95;1763954;80;21535;-64
2022/02/20 08:21:19;;;;;;;8.13;4.72;;;;;;;8.32;41.70;98799.09;1744458;80;20979;-64
2022/02/20 08:23:46;;;;;;;8.35;4.37;;;;;;;8.39;41.74;98795.27;1746150;80;20944;-64
2022/02/20 08:26:13;;;;;;;6.40;4.00;;;;;;;8.56;41.64;98784.89;1754260;80;20883;-63
2022/02/20 08:28:40;;;;;;;5.92;4.20;;;;;;;8.73;41.35;98782.98;1753283;80;21142;-64
2022/02/20 08:31:09;;;;;;;8.23;3.87;;;;;;;8.87;41.12;98783.53;1757076;80;20944;-61
2022/02/20 08:33:36;;;;;;;6.95;4.20;;;;;;;9.04;40.92;98783.77;1761474;80;20891;-64
2022/02/20 08:36:03;;;;;;;7.25;4.37;;;;;;;9.21;40.62;98774.66;1757951;80;20967;-64
2022/02/20 08:38:29;;;;;;;5.80;3.87;;;;;;;9.23;40.36;98766.02;1749527;80;21048;-65
2022/02/20 08:40:56;;;;;;;6.67;4.05;;;;;;;9.21;40.39;98774.17;1750042;80;21165;-63
2022/02/20 08:43:23;;;;;;;7.12;4.45;;;;;;;9.15;40.36;98776.20;1748830;80;21615;-65
2022/02/20 08:45:49;;;;;;;8.18;4.62;;;;;;;9.04;40.42;98771.83;1766978;81;20988;-65
2022/02/20 08:48:15;;;;;;;9.95;4.97;;;;;;;8.87;40.61;98780.88;1766971;81;21053;-62
2022/02/20 08:50:42;;;;;;;9.90;4.67;;;;;;;8.71;40.70;98787.64;1767437;80;21572;-63
2022/02/20 08:53:10;;;;;;;10.70;5.42;;;;;;;8.56;41.07;98775.61;1747253;80;21099;-65
2022/02/20 08:55:36;;;;;;;10.70;5.10;;;;;;;8.46;41.34;98784.28;1745992;80;20982;-62
2022/02/20 08:58:04;;;;;;;9.35;4.78;;;;;;;8.35;41.58;98791.29;1741960;81;20931;-64
2022/02/20 09:00:31;;;;;;;6.90;4.17;;;;;;;8.19;41.77;98781.55;1760270;81;20983;-63
2022/02/20 09:02:58;;;;;;;7.15;4.30;;;;;;;8.13;42.02;98780.94;1750186;81;20961;-64
2022/02/20 09:05:24;;;;;;;10.80;4.40;;;;;;;8.10;42.37;98775.98;1748356;80;21211;-65
2022/02/20 09:07:51;;;;;;;7.67;4.17;;;;;;;8.11;42.61;98775.48;1751086;80;21028;-63
2022/02/20 09:10:17;;;;;;;7.35;3.90;;;;;;;8.08;42.47;98774.80;1746624;80;20948;-65
2022/02/20 09:12:50;;;;;;;6.15;3.90;;;;;;;8.04;42.41;98771.35;1737095;80;21101;-65
2022/02/20 09:15:16;;;;;;;6.10;3.85;;;;;;;7.98;42.56;98772.03;1756122;80;21012;-66
2022/02/20 09:17:43;;;;;;;8.30;3.98;;;;;;;7.90;42.73;98772.88;1753258;80;21144;-65
2022/02/20 09:20:10;;;;;;;5.47;3.62;;;;;;;7.84;42.86;98774.91;1751500;80;20915;-63
2022/02/20 09:22:42;;;;;;;6.10;4.15;;;;;;;7.82;43.01;98766.80;1752283;80;21005;-64
2022/02/20 09:25:11;;;;;;;6.92;4.05;;;;;;;7.79;43.05;98768.46;1756615;80;20903;-60
2022/02/20 09:27:40;;;;;;;8.73;4.58;;;;;;;7.78;43.32;98769.45;1746562;80;21045;-59
2022/02/20 09:30:08;;;;;;;7.05;4.83;;;;;;;7.79;43.51;98763.17;1754577;80;21162;-62
2022/02/20 09:32:35;;;;;;;6.72;4.45;;;;;;;7.87;43.59;98765.80;1691685;83;21042;-63
2022/02/20 09:35:02;;;;;;;7.05;4.83;;;;;;;7.95;43.42;98776.37;1750198;80;20936;-59
2022/02/20 09:37:29;;;;;;;8.18;4.12;;;;;;;7.98;43.30;98777.33;1758219;80;21037;-61
2022/02/20 09:39:55;;;;;;;7.30;4.58;;;;;;;8.00;43.05;98774.83;1758554;80;20975;-60
2022/02/20 09:42:22;;;;;;;11.12;4.70;;;;;;;7.99;43.15;98772.36;1757266;80;21157;-60
2022/02/20 09:44:49;;;;;;;6.45;3.60;;;;;;;8.04;43.17;98770.86;1721498;80;20923;-60
2022/02/20 09:47:15;;;;;;;7.53;4.28;;;;;;;8.09;43.03;98767.20;1766165;80;20990;-61
2022/02/20 09:49:44;;;;;;;6.17;3.52;;;;;;;8.16;42.32;98761.22;1760038;80;21111;-62
2022/02/20 09:52:10;;;;;;;6.08;3.55;;;;;;;8.10;41.97;98760.08;1738312;80;20934;-60
2022/02/20 09:54:38;;;;;;;6.78;3.50;;;;;;;8.08;42.24;98755.46;1745396;80;21038;-59
2022/02/20 09:57:04;;;;;;;7.12;3.70;;;;;;;8.08;41.98;98747.52;1745911;81;21463;-61
2022/02/20 09:59:32;;;;;;;6.50;3.58;;;;;;;8.05;41.99;98746.03;1746281;80;20929;-60
2022/02/20 10:02:10;;;;;;;6.72;3.10;;;;;;;8.03;41.99;98743.20;1767744;80;20891;-60
2022/02/20 10:04:48;;;;;;;5.03;3.08;;;;;;;8.01;42.16;98742.06;1742264;80;21423;-60
2022/02/20 10:07:35;;;;;;;5.37;3.20;;;;;;;7.97;42.11;98733.31;1757249;80;21742;-58
2022/02/20 10:10:25;;;;;;;8.18;3.83;;;;;;;7.86;41.99;98734.51;1693219;84;21575;-63
2022/02/20 10:13:00;;;;;;;4.95;3.00;;;;;;;7.68;42.13;98719.84;1730598;81;21412;-65
2022/02/20 10:15:30;;;;;;;7.00;3.27;;;;;;;7.61;42.52;98717.55;1742639;81;21026;-64
2022/02/20 10:18:17;;;;;;;8.88;3.20;;;;;;;7.57;42.57;98711.76;1740381;80;20946;-69
2022/02/20 10:21:04;;;;;;;6.85;3.17;;;;;;;7.53;42.69;98710.46;1754150;81;21583;-63
2022/02/20 10:23:39;;;;;;;5.90;3.20;;;;;;;7.48;42.83;98710.14;1692395;80;20987;-63
2022/02/20 10:26:25;;;;;;;6.80;3.20;;;;;;;7.46;43.00;98697.55;1742110;81;21639;-65
2022/02/20 10:29:18;;;;;;;5.50;2.95;;;;;;;7.44;43.00;98691.13;1678323;84;20995;-67
2022/02/20 10:31:50;;;;;;;4.97;2.87;;;;;;;7.43;43.00;98686.81;1676150;83;21604;-64
2022/02/20 10:34:23;;;;;;;5.08;2.85;;;;;;;7.44;42.96;98676.56;1723088;80;21593;-64
2022/02/20 10:37:03;;;;;;;5.65;3.17;;;;;;;7.48;42.91;98671.77;1758276;80;20875;-66
2022/02/20 10:39:36;;;;;;;5.35;3.12;;;;;;;7.51;42.77;98664.78;1768463;80;21171;-63
2022/02/20 10:42:19;;;;;;;6.75;3.70;;;;;;;7.54;42.71;98666.27;1771486;80;20919;-62
2022/02/20 10:44:52;;;;;;;7.10;2.67;;;;;;;7.58;42.42;98663.62;1744750;80;21568;-64
2022/02/20 10:47:21;;;;;;;5.15;3.12;;;;;;;7.59;42.43;98661.28;1763583;80;21744;-64
2022/02/20 10:49:48;;;;;;;6.17;2.87;;;;;;;7.61;42.43;98650.05;1721924;80;20983;-64
2022/02/20 10:52:23;;;;;;;10.80;3.30;;;;;;;7.61;42.08;98647.41;1727848;82;21040;-62
2022/02/20 10:55:10;;;;;;;5.28;3.47;;;;;;;7.57;41.86;98643.43;1733105;82;20980;-64
2022/02/20 10:57:39;;;;;;;4.72;2.75;;;;;;;7.49;41.79;98636.34;1726998;82;21048;-64
2022/02/20 11:00:15;;;;;;;5.28;3.12;;;;;;;7.48;41.94;98644.78;1735385;82;21151;-64
2022/02/20 11:02:42;;;;;;;5.62;3.50;;;;;;;7.46;41.95;98636.20;1708407;82;21046;-65
2022/02/20 11:05:10;;;;;;;7.28;3.10;;;;;;;7.45;41.90;98633.23;1733918;82;21024;-63
2022/02/20 11:07:37;;;;;;;5.30;2.55;;;;;;;7.44;41.83;98622.31;1734452;82;21021;-65
2022/02/20 11:10:10;;;;;;;5.90;3.15;;;;;;;7.42;41.67;98612.90;1737615;81;21472;-64
2022/02/20 11:12:38;;;;;;;5.95;2.85;;;;;;;7.39;41.62;98604.80;1710064;82;21409;-63
2022/02/20 11:15:06;;;;;;;5.03;3.00;;;;;;;7.35;41.49;98600.83;1723242;82;20993;-63
2022/02/20 11:17:36;;;;;;;4.78;2.60;;;;;;;7.36;41.55;98601.17;1730397;82;20917;-64
2022/02/20 11:20:07;;;;;;;6.17;3.00;;;;;;;7.34;41.15;98596.55;1732816;82;20937;-64
2022/02/20 11:22:36;;;;;;;5.25;2.30;;;;;;;7.32;41.11;98593.27;1699678;82;20941;-62
2022/02/20 11:25:06;;;;;;;4.60;2.40;;;;;;;7.32;40.64;98583.17;1732802;82;21207;-64
2022/02/20 11:27:35;;;;;;;6.12;2.42;;;;;;;7.30;40.56;98582.00;1719306;82;20973;-63
2022/02/20 11:30:03;;;;;;;3.87;2.25;;;;;;;7.30;40.44;98573.27;1732039;82;21549;-64
2022/02/20 11:32:31;;;;;;;3.80;2.10;;;;;;;7.29;40.30;98567.14;1730992;82;20978;-64
2022/02/20 11:34:57;;;;;;;5.10;2.75;;;;;;;7.33;40.12;98575.05;1716142;82;20918;-64
2022/02/20 11:37:23;;;;;;;4.87;2.37;;;;;;;7.38;40.12;98569.23;1723023;82;21498;-65
2022/02/20 11:40:03;;;;;;;7.58;2.90;;;;;;;7.48;40.38;98568.03;1693221;82;20914;-65
2022/02/20 11:42:29;;;;;;;5.15;2.55;;;;;;;7.66;40.49;98568.30;1737858;82;21004;-66
2022/02/20 11:45:06;;;;;;;5.50;2.80;;;;;;;7.79;40.57;98566.73;1723505;82;20940;-65
2022/02/20 11:47:41;;;;;;;3.72;2.72;;;;;;;7.91;40.16;98556.06;1695661;82;21035;-63
2022/02/20 11:50:20;;;;;;;5.85;2.45;;;;;;;7.99;40.17;98554.69;1736679;81;21248;-62
2022/02/20 11:52:58;;;;;;;5.53;2.58;;;;;;;8.07;40.08;98551.98;1743343;80;21571;-62